Time;durP1;ratioP1;P1;durP2;ratioP2;P2;SDS_P1;SDS_P2;PMS_P1;PMS_P2;Temp;Humidity;BMP_temperature;BMP_pressure;BME280_temperature;BME280_humidity;BME280_pressure;Samples;Min_cycle;Max_cycle;Signal;HPM_P1;HPM_P2
2022/08/05 00:01:23;;;;;;;65.32;52.22;;;27.00;57.40;;;;;;4942245;28;95917;-56
2022/08/05 00:03:49;;;;;;;63.70;52.25;;;27.00;57.60;;;;;;4943880;28;92406;-57
2022/08/05 00:06:16;;;;;;;64.25;52.05;;;27.00;57.70;;;;;;4940402;28;89458;-58
2022/08/05 00:08:42;;;;;;;64.75;52.10;;;27.00;57.60;;;;;;4946882;28;90078;-53
2022/08/05 00:11:10;;;;;;;63.75;52.45;;;27.00;57.50;;;;;;4938759;28;91180;-57
2022/08/05 00:13:38;;;;;;;64.25;52.33;;;27.00;57.60;;;;;;4935127;28;92544;-54
2022/08/05 00:16:04;;;;;;;64.75;52.17;;;27.00;57.60;;;;;;4930991;28;91805;-57
2022/08/05 00:18:30;;;;;;;64.38;52.15;;;27.00;57.60;;;;;;4943169;28;94252;-57
2022/08/05 00:20:56;;;;;;;63.38;52.22;;;27.00;57.70;;;;;;4944314;28;90535;-58
2022/08/05 00:23:23;;;;;;;63.53;52.20;;;27.00;57.70;;;;;;4945286;28;93388;-58
2022/08/05 00:25:49;;;;;;;63.22;51.65;;;27.00;57.70;;;;;;4950435;28;90978;-58
2022/08/05 00:28:15;;;;;;;65.15;52.35;;;27.00;57.80;;;;;;4957336;28;90806;-55
2022/08/05 00:30:41;;;;;;;65.82;52.20;;;27.00;57.80;;;;;;4934347;28;89657;-57
2022/08/05 00:33:07;;;;;;;64.30;52.47;;;27.00;57.90;;;;;;4940467;28;89801;-54
2022/08/05 00:35:33;;;;;;;63.65;52.28;;;27.00;57.90;;;;;;4935862;28;90556;-56
2022/08/05 00:37:59;;;;;;;64.10;52.08;;;27.00;57.90;;;;;;4949127;28;95708;-58
2022/08/05 00:40:26;;;;;;;64.35;51.92;;;27.00;57.80;;;;;;4949334;28;96498;-54
2022/08/05 00:42:52;;;;;;;63.75;52.00;;;27.00;57.70;;;;;;4923223;28;90147;-56
2022/08/05 00:45:18;;;;;;;63.78;52.10;;;27.00;57.90;;;;;;4942086;28;89815;-57
2022/08/05 00:47:44;;;;;;;63.90;52.15;;;27.00;58.40;;;;;;4944516;28;96116;-54
2022/08/05 00:50:09;;;;;;;64.20;51.88;;;26.90;57.80;;;;;;4931788;28;90381;-57
2022/08/05 00:52:35;;;;;;;63.47;52.03;;;27.00;58.00;;;;;;4931006;28;89905;-53
2022/08/05 00:55:01;;;;;;;64.68;51.85;;;27.00;58.10;;;;;;4946270;28;93273;-56
2022/08/05 00:57:27;;;;;;;63.90;52.03;;;27.00;58.00;;;;;;4957116;28;90082;-54
2022/08/05 00:59:52;;;;;;;63.40;51.92;;;27.00;58.00;;;;;;4940329;28;89938;-56
2022/08/05 01:02:18;;;;;;;64.03;51.90;;;27.00;57.90;;;;;;4934364;28;92858;-53
2022/08/05 01:04:43;;;;;;;64.05;52.22;;;27.00;58.20;;;;;;4940060;28;90076;-55
2022/08/05 01:07:09;;;;;;;64.25;52.10;;;27.00;58.10;;;;;;4946383;28;90242;-56
2022/08/05 01:09:35;;;;;;;63.30;51.78;;;27.00;58.20;;;;;;4943516;28;92268;-57
2022/08/05 01:12:10;;;;;;;64.15;51.72;;;27.00;58.10;;;;;;4933867;28;95058;-56
2022/08/05 01:14:54;;;;;;;63.42;51.78;;;27.00;58.20;;;;;;4950654;28;96256;-57
2022/08/05 01:17:28;;;;;;;62.80;51.60;;;26.90;58.20;;;;;;4942729;28;90473;-57
2022/08/05 01:20:18;;;;;;;63.90;51.78;;;26.90;58.10;;;;;;4947118;28;92082;-55
2022/08/05 01:22:52;;;;;;;64.10;52.25;;;26.80;58.30;;;;;;4944308;28;90874;-58
2022/08/05 01:25:43;;;;;;;64.45;52.03;;;26.80;58.30;;;;;;4946375;28;89843;-56
2022/08/05 01:28:14;;;;;;;63.80;51.75;;;26.80;58.40;;;;;;4933982;28;92453;-53
2022/08/05 01:30:50;;;;;;;63.45;52.15;;;26.80;58.40;;;;;;4942811;28;92053;-56
2022/08/05 01:33:17;;;;;;;65.40;51.80;;;26.80;58.30;;;;;;4935327;28;91359;-56
2022/08/05 01:35:46;;;;;;;62.63;51.85;;;26.90;58.40;;;;;;4951301;28;90293;-55
2022/08/05 01:38:14;;;;;;;63.88;51.90;;;26.80;58.40;;;;;;4945435;28;90936;-56
2022/08/05 01:40:41;;;;;;;64.43;51.85;;;26.80;58.30;;;;;;4941991;28;90023;-56
2022/08/05 01:43:08;;;;;;;64.63;51.92;;;26.80;58.40;;;;;;4947967;28;89461;-56
2022/08/05 01:45:35;;;;;;;63.50;51.60;;;26.80;58.60;;;;;;4947618;28;90848;-57
2022/08/05 01:48:02;;;;;;;64.88;52.00;;;26.80;58.40;;;;;;4941429;28;91103;-56
2022/08/05 01:50:31;;;;;;;63.97;52.42;;;26.80;58.50;;;;;;4936680;28;93134;-54
2022/08/05 01:53:00;;;;;;;62.92;51.58;;;26.80;58.50;;;;;;4949366;28;90904;-57
2022/08/05 01:55:28;;;;;;;64.22;52.25;;;26.80;59.00;;;;;;4948327;28;90653;-59
2022/08/05 01:57:56;;;;;;;64.63;51.90;;;26.80;58.40;;;;;;4945628;28;95791;-55
2022/08/05 02:00:24;;;;;;;63.00;51.90;;;26.80;58.40;;;;;;4940763;28;90538;-56
2022/08/05 02:03:03;;;;;;;64.05;51.95;;;26.80;58.30;;;;;;4948438;28;91538;-56
2022/08/05 02:05:31;;;;;;;64.25;51.90;;;26.80;58.40;;;;;;4947979;28;90379;-54
2022/08/05 02:07:58;;;;;;;63.53;51.63;;;26.80;58.40;;;;;;4940476;28;89816;-56
2022/08/05 02:10:27;;;;;;;63.28;51.88;;;26.80;58.30;;;;;;4944220;28;94312;-57
2022/08/05 02:12:59;;;;;;;63.42;52.00;;;26.80;58.30;;;;;;4945016;28;89919;-57
2022/08/05 02:15:38;;;;;;;63.45;51.72;;;26.80;58.40;;;;;;4945469;28;89508;-56
2022/08/05 02:18:23;;;;;;;62.90;51.75;;;26.80;58.60;;;;;;4945056;28;91044;-57
2022/08/05 02:20:56;;;;;;;63.13;52.03;;;26.80;58.60;;;;;;4941714;28;96866;-57
2022/08/05 02:23:27;;;;;;;63.28;51.80;;;26.80;58.40;;;;;;4944650;28;90992;-59
2022/08/05 02:25:56;;;;;;;63.00;52.08;;;26.80;58.40;;;;;;4933916;28;95258;-58
2022/08/05 02:28:28;;;;;;;63.17;51.75;;;26.80;58.40;;;;;;4929363;28;90975;-54
2022/08/05 02:30:59;;;;;;;63.05;51.83;;;26.80;58.40;;;;;;4955418;28;93858;-57
2022/08/05 02:33:25;;;;;;;;;;;26.80;58.40;;;;;;4940395;28;91381;-56
2022/08/05 02:35:55;;;;;;;63.42;51.47;;;26.70;58.40;;;;;;4943225;28;89005;-58
2022/08/05 02:38:22;;;;;;;63.58;51.75;;;26.70;58.30;;;;;;4939429;28;92148;-56
2022/08/05 02:40:48;;;;;;;64.25;51.90;;;26.70;59.10;;;;;;4941254;28;89678;-56
2022/08/05 02:43:15;;;;;;;62.95;51.83;;;26.70;58.50;;;;;;4931489;28;90425;-58
2022/08/05 02:45:41;;;;;;;65.90;51.80;;;26.70;58.40;;;;;;4941152;28;89547;-58
2022/08/05 02:48:08;;;;;;;63.63;51.97;;;26.80;58.50;;;;;;4944700;28;89654;-58
2022/08/05 02:50:35;;;;;;;63.80;51.78;;;26.80;58.40;;;;;;4948381;28;90262;-58
2022/08/05 02:53:02;;;;;;;63.53;51.65;;;26.80;58.50;;;;;;4946976;28;91793;-57
2022/08/05 02:55:30;;;;;;;63.35;51.72;;;26.70;58.40;;;;;;4937648;28;89975;-58
2022/08/05 02:57:57;;;;;;;62.45;51.65;;;26.80;58.50;;;;;;4954067;28;89862;-56
2022/08/05 03:00:23;;;;;;;64.05;51.63;;;26.70;58.40;;;;;;4950812;28;90491;-58
2022/08/05 03:02:50;;;;;;;62.75;51.50;;;26.70;58.50;;;;;;4944293;28;91005;-58
2022/08/05 03:05:17;;;;;;;63.20;51.78;;;26.60;58.40;;;;;;4949880;28;91940;-57
2022/08/05 03:07:44;;;;;;;63.53;51.45;;;26.60;58.50;;;;;;4941152;28;91985;-55
2022/08/05 03:10:10;;;;;;;64.07;51.55;;;26.50;58.50;;;;;;4952141;28;89791;-58
2022/08/05 03:12:37;;;;;;;63.55;51.67;;;26.50;58.50;;;;;;4954478;28;89873;-55
2022/08/05 03:15:06;;;;;;;63.28;51.70;;;26.50;58.50;;;;;;4939277;28;89598;-56
2022/08/05 03:17:31;;;;;;;62.75;51.45;;;26.60;58.60;;;;;;4938675;28;89891;-57
2022/08/05 03:19:57;;;;;;;64.85;51.97;;;26.60;58.60;;;;;;4947969;28;90666;-57
2022/08/05 03:22:23;;;;;;;62.95;51.60;;;26.50;58.50;;;;;;4940138;28;90526;-58
2022/08/05 03:24:50;;;;;;;62.72;51.60;;;26.50;58.50;;;;;;4943825;28;89069;-57
2022/08/05 03:27:16;;;;;;;63.35;51.63;;;26.50;58.50;;;;;;4953575;28;90084;-56
2022/08/05 03:29:42;;;;;;;63.83;51.90;;;26.50;58.50;;;;;;4942755;28;89803;-58
2022/08/05 03:32:09;;;;;;;62.63;51.72;;;26.50;58.50;;;;;;4937866;28;90833;-58
2022/08/05 03:34:35;;;;;;;64.28;51.63;;;26.50;58.60;;;;;;4942251;28;89558;-57
2022/08/05 03:37:02;;;;;;;63.78;51.58;;;26.50;58.70;;;;;;4949451;28;90026;-58
2022/08/05 03:39:28;;;;;;;63.22;51.67;;;26.40;58.50;;;;;;4939438;28;92474;-56
2022/08/05 03:41:54;;;;;;;63.08;51.40;;;26.50;58.60;;;;;;4944183;28;90553;-54
2022/08/05 03:44:20;;;;;;;64.40;51.92;;;26.40;58.70;;;;;;4951002;28;91781;-56
2022/08/05 03:46:46;;;;;;;63.40;51.72;;;26.40;58.70;;;;;;4946936;28;90187;-54
2022/08/05 03:49:12;;;;;;;62.47;51.53;;;26.40;58.70;;;;;;4943494;28;89860;-54
2022/08/05 03:51:53;;;;;;;62.08;51.22;;;26.40;58.50;;;;;;4946812;28;91012;-58
2022/08/05 03:54:33;;;;;;;63.00;51.53;;;26.40;58.70;;;;;;4954437;28;89821;-58
2022/08/05 03:56:59;;;;;;;62.47;51.38;;;26.40;58.70;;;;;;4942635;28;91571;-57
2022/08/05 03:59:32;;;;;;;63.50;51.60;;;26.30;58.70;;;;;;4941131;28;90768;-57
2022/08/05 04:02:00;;;;;;;62.97;51.67;;;26.40;58.80;;;;;;4945270;28;93164;-57
2022/08/05 04:04:28;;;;;;;63.83;51.60;;;26.30;58.80;;;;;;4930536;28;90890;-58
2022/08/05 04:06:54;;;;;;;65.00;51.75;;;26.30;58.70;;;;;;4942922;28;89931;-56
2022/08/05 04:09:20;;;;;;;62.45;51.40;;;26.40;58.70;;;;;;4953623;28;90011;-58
2022/08/05 04:11:46;;;;;;;63.13;51.40;;;26.30;58.70;;;;;;4942297;28;92170;-57
2022/08/05 04:14:11;;;;;;;62.05;51.40;;;26.30;58.70;;;;;;4949996;28;88903;-57
2022/08/05 04:16:37;;;;;;;62.75;51.65;;;26.30;58.70;;;;;;4943092;28;90207;-57
2022/08/05 04:19:03;;;;;;;63.35;51.63;;;26.30;58.70;;;;;;4949301;28;89988;-56
2022/08/05 04:21:29;;;;;;;63.35;51.63;;;26.30;58.60;;;;;;4938870;28;91248;-59
2022/08/05 04:23:57;;;;;;;63.03;51.67;;;26.30;58.60;;;;;;4946680;28;92250;-56
2022/08/05 04:26:23;;;;;;;62.88;51.22;;;26.30;58.80;;;;;;4953936;28;93956;-57
2022/08/05 04:28:49;;;;;;;62.85;51.65;;;26.20;58.80;;;;;;4943920;28;90040;-56
2022/08/05 04:31:14;;;;;;;63.65;51.53;;;26.20;58.80;;;;;;4942886;28;89996;-58
2022/08/05 04:33:40;;;;;;;62.70;51.53;;;26.30;58.60;;;;;;4938244;28;95670;-58
2022/08/05 04:36:08;;;;;;;62.53;51.35;;;26.20;58.70;;;;;;4949239;28;90228;-58
2022/08/05 04:38:35;;;;;;;62.83;51.28;;;26.20;58.70;;;;;;4952594;28;91429;-58
2022/08/05 04:41:01;;;;;;;62.70;51.50;;;26.20;58.70;;;;;;4948445;28;91511;-55
2022/08/05 04:43:27;;;;;;;63.88;51.42;;;26.20;58.60;;;;;;4930242;28;95905;-57
2022/08/05 04:45:52;;;;;;;63.05;51.55;;;26.20;58.60;;;;;;4950504;28;90881;-56
2022/08/05 04:48:18;;;;;;;63.55;51.65;;;26.20;58.60;;;;;;4937714;28;90154;-57
2022/08/05 04:50:46;;;;;;;63.35;51.45;;;26.20;58.50;;;;;;4960699;28;90079;-58
2022/08/05 04:53:13;;;;;;;63.88;51.97;;;26.20;58.70;;;;;;4942834;28;90704;-57
2022/08/05 04:55:39;;;;;;;63.05;51.53;;;26.20;58.60;;;;;;4956017;28;89637;-58
2022/08/05 04:58:07;;;;;;;63.70;51.67;;;26.20;58.70;;;;;;4940476;28;90176;-57
2022/08/05 05:00:34;;;;;;;63.53;51.53;;;26.20;58.50;;;;;;4943218;28;92483;-53
2022/08/05 05:02:59;;;;;;;64.75;51.65;;;26.10;58.90;;;;;;4938856;28;88898;-56
2022/08/05 05:05:25;;;;;;;63.35;52.05;;;26.10;58.60;;;;;;4946141;28;89871;-57
2022/08/05 05:07:52;;;;;;;62.70;51.42;;;26.10;58.70;;;;;;4938743;28;92902;-58
2022/08/05 05:10:17;;;;;;;62.53;51.53;;;26.10;58.60;;;;;;4933426;28;92609;-56
2022/08/05 05:12:43;;;;;;;63.85;51.42;;;26.10;58.80;;;;;;4948400;28;90536;-57
2022/08/05 05:15:09;;;;;;;62.15;51.53;;;26.10;58.60;;;;;;4944907;28;90049;-57
2022/08/05 05:17:45;;;;;;;62.53;51.15;;;26.10;58.40;;;;;;4938349;28;90063;-56
2022/08/05 05:20:13;;;;;;;61.85;51.17;;;26.20;58.70;;;;;;4944300;28;94675;-53
2022/08/05 05:22:39;;;;;;;62.20;51.35;;;26.10;58.50;;;;;;4947234;28;90071;-56
2022/08/05 05:25:06;;;;;;;63.00;51.33;;;26.10;58.60;;;;;;4943608;28;90136;-58
2022/08/05 05:27:33;;;;;;;62.63;51.47;;;26.10;58.70;;;;;;4941781;28;90167;-56
2022/08/05 05:29:59;;;;;;;61.97;51.20;;;26.10;58.50;;;;;;4945389;28;89800;-56
2022/08/05 05:32:24;;;;;;;62.75;51.55;;;26.10;58.40;;;;;;4949680;28;90077;-58
2022/08/05 05:34:50;;;;;;;62.58;51.47;;;26.10;58.30;;;;;;4935074;28;90933;-56
2022/08/05 05:37:16;;;;;;;61.75;51.25;;;26.10;58.50;;;;;;4946847;28;92642;-55
2022/08/05 05:39:42;;;;;;;62.78;51.42;;;26.10;58.30;;;;;;4950271;28;89817;-56
2022/08/05 05:42:07;;;;;;;62.30;51.55;;;26.10;58.50;;;;;;4940420;28;91450;-57
2022/08/05 05:44:33;;;;;;;61.97;51.25;;;26.10;58.60;;;;;;4938941;28;89523;-58
2022/08/05 05:46:59;;;;;;;62.35;51.28;;;26.10;58.50;;;;;;4957445;28;90427;-56
2022/08/05 05:49:25;;;;;;;62.65;51.58;;;26.10;58.60;;;;;;4938309;28;89796;-56
2022/08/05 05:51:51;;;;;;;62.15;51.15;;;26.10;58.60;;;;;;4931974;28;90885;-57
2022/08/05 05:54:17;;;;;;;62.10;51.65;;;26.10;58.20;;;;;;4928377;28;90484;-56
2022/08/05 05:56:43;;;;;;;63.45;51.55;;;26.10;57.90;;;;;;4922317;28;91706;-55
2022/08/05 05:59:09;;;;;;;62.42;51.25;;;26.10;58.60;;;;;;4932261;28;92658;-56
2022/08/05 06:01:36;;;;;;;63.22;51.22;;;26.00;58.50;;;;;;4938992;28;89860;-57
2022/08/05 06:04:02;;;;;;;62.63;51.40;;;26.00;58.70;;;;;;4939554;28;90570;-55
2022/08/05 06:06:28;;;;;;;62.95;51.05;;;26.10;58.50;;;;;;4937276;28;91577;-58
2022/08/05 06:08:53;;;;;;;63.05;51.20;;;26.10;58.20;;;;;;4942455;28;89916;-56
2022/08/05 06:11:19;;;;;;;62.03;51.53;;;26.10;58.20;;;;;;4945321;28;92555;-58
2022/08/05 06:13:45;;;;;;;61.70;51.30;;;26.10;58.30;;;;;;4940680;28;91070;-56
2022/08/05 06:16:10;;;;;;;62.33;51.35;;;26.10;58.10;;;;;;4945259;28;89884;-57
2022/08/05 06:18:39;;;;;;;63.05;51.80;;;26.10;58.10;;;;;;4940291;28;92376;-57
2022/08/05 06:21:04;;;;;;;61.90;51.17;;;26.10;57.80;;;;;;4936305;28;89625;-56
2022/08/05 06:23:30;;;;;;;62.90;51.63;;;26.10;57.70;;;;;;4919923;28;91947;-56
2022/08/05 06:25:56;;;;;;;61.85;51.40;;;26.00;58.20;;;;;;4924501;28;93758;-58
2022/08/05 06:28:22;;;;;;;62.67;51.60;;;26.10;58.00;;;;;;4924900;28;91462;-56
2022/08/05 06:30:47;;;;;;;61.83;51.38;;;26.10;58.30;;;;;;4927250;28;90156;-58
2022/08/05 06:33:13;;;;;;;61.63;51.17;;;26.10;58.50;;;;;;4936081;28;95271;-58
2022/08/05 06:35:39;;;;;;;62.47;51.40;;;26.10;58.50;;;;;;4928096;28;92839;-54
2022/08/05 06:38:04;;;;;;;62.92;51.28;;;26.10;58.60;;;;;;4926829;28;89918;-57
2022/08/05 06:40:30;;;;;;;62.85;51.38;;;26.10;58.50;;;;;;4932384;28;90664;-56
2022/08/05 06:42:56;;;;;;;65.07;52.20;;;26.10;57.30;;;;;;4946412;28;96585;-52
2022/08/05 06:45:22;;;;;;;65.00;52.45;;;25.80;55.70;;;;;;4947345;28;90393;-57
2022/08/05 06:47:48;;;;;;;64.70;52.22;;;25.70;55.70;;;;;;4925404;28;92689;-57
2022/08/05 06:50:13;;;;;;;65.78;52.25;;;25.60;55.40;;;;;;4937635;28;89656;-57
2022/08/05 06:52:39;;;;;;;66.45;52.55;;;25.50;55.50;;;;;;4941495;28;90604;-57
2022/08/05 06:55:05;;;;;;;66.10;52.58;;;25.30;55.70;;;;;;4927852;28;93413;-54
2022/08/05 06:57:31;;;;;;;64.07;52.58;;;25.20;55.60;;;;;;4934280;28;89920;-58
2022/08/05 06:59:57;;;;;;;66.13;52.58;;;25.10;55.80;;;;;;4937110;28;89974;-56
2022/08/05 07:02:23;;;;;;;63.47;52.20;;;25.00;55.70;;;;;;4908977;28;90299;-56
2022/08/05 07:04:48;;;;;;;67.90;52.83;;;24.90;56.00;;;;;;4897334;28;89982;-56
2022/08/05 07:07:14;;;;;;;67.05;52.67;;;24.80;56.10;;;;;;4900388;28;93626;-56
2022/08/05 07:09:40;;;;;;;66.25;52.13;;;24.70;56.10;;;;;;4891396;28;93026;-55
2022/08/05 07:12:06;;;;;;;66.07;51.95;;;24.80;56.20;;;;;;4882387;28;91546;-54
2022/08/05 07:17:16;;;;;;;66.65;52.00;;;24.70;56.50;;;;;;4888477;28;89487;-56
2022/08/05 07:19:41;;;;;;;66.22;52.67;;;24.70;56.80;;;;;;4889314;28;96483;-56
2022/08/05 07:22:07;;;;;;;65.85;52.10;;;24.80;57.00;;;;;;4897513;28;98284;-58
2022/08/05 07:24:33;;;;;;;66.07;52.05;;;24.80;56.80;;;;;;4890750;28;95572;-57
2022/08/05 07:26:58;;;;;;;65.88;52.28;;;24.80;56.60;;;;;;4888664;28;93120;-56
2022/08/05 07:29:24;;;;;;;65.60;51.90;;;24.80;56.40;;;;;;4908794;28;90938;-57
2022/08/05 07:31:50;;;;;;;64.32;51.67;;;24.80;56.20;;;;;;4901183;28;90142;-53
2022/08/05 07:34:15;;;;;;;65.82;51.72;;;24.80;56.40;;;;;;4888067;28;91413;-54
2022/08/05 07:36:41;;;;;;;66.38;52.00;;;24.70;56.30;;;;;;4892203;28;90705;-54
2022/08/05 07:39:08;;;;;;;66.18;51.90;;;24.70;56.00;;;;;;4904870;28;90585;-52
2022/08/05 07:41:35;;;;;;;65.35;52.10;;;24.70;56.10;;;;;;4898767;28;91049;-55
2022/08/05 07:44:01;;;;;;;66.38;52.13;;;24.70;56.10;;;;;;4888549;28;90490;-57
2022/08/05 07:46:29;;;;;;;66.45;52.08;;;24.80;55.80;;;;;;4892058;28;91073;-56
2022/08/05 07:48:57;;;;;;;65.28;51.85;;;24.80;55.70;;;;;;4891604;28;90554;-56
2022/08/05 07:51:23;;;;;;;68.60;51.55;;;25.00;55.70;;;;;;4894533;28;93827;-56
2022/08/05 07:53:48;;;;;;;63.45;51.42;;;25.20;55.90;;;;;;4881792;28;92247;-60
2022/08/05 07:56:14;;;;;;;66.22;51.88;;;25.30;55.80;;;;;;4892015;28;93152;-58
2022/08/05 07:58:40;;;;;;;64.50;51.67;;;25.30;55.20;;;;;;4909276;28;89864;-56
2022/08/05 08:01:05;;;;;;;67.20;52.10;;;25.20;55.10;;;;;;4923161;28;90924;-59
2022/08/05 08:03:31;;;;;;;62.95;51.85;;;25.20;55.20;;;;;;4931012;28;90145;-59
2022/08/05 08:05:57;;;;;;;66.60;52.42;;;25.20;54.90;;;;;;4943706;28;90930;-58
2022/08/05 08:08:22;;;;;;;65.53;52.10;;;25.20;54.60;;;;;;4926457;28;89957;-55
2022/08/05 08:10:48;;;;;;;65.97;52.38;;;25.20;54.50;;;;;;4931916;28;91777;-58
2022/08/05 08:13:13;;;;;;;66.70;52.55;;;25.30;54.50;;;;;;4935618;28;93682;-57
2022/08/05 08:15:39;;;;;;;66.55;52.25;;;25.30;54.30;;;;;;4935343;28;91606;-60
2022/08/05 08:18:05;;;;;;;64.85;52.03;;;25.20;54.30;;;;;;4929073;28;90920;-58
2022/08/05 08:20:31;;;;;;;65.10;51.95;;;25.20;54.40;;;;;;4933112;28;90442;-59
2022/08/05 08:22:58;;;;;;;65.53;51.83;;;25.20;54.50;;;;;;4930275;28;91199;-57
2022/08/05 08:25:25;;;;;;;68.13;51.75;;;25.30;54.40;;;;;;4943520;28;94231;-59
2022/08/05 08:27:50;;;;;;;66.93;51.95;;;25.40;54.70;;;;;;4938143;28;91267;-58
2022/08/05 08:30:16;;;;;;;63.00;51.40;;;25.60;54.40;;;;;;4934875;28;92952;-56
2022/08/05 08:32:42;;;;;;;63.30;51.50;;;25.60;54.30;;;;;;4948603;28;91444;-60
2022/08/05 08:35:08;;;;;;;63.40;51.72;;;25.60;54.10;;;;;;4938520;28;98199;-59
2022/08/05 08:37:34;;;;;;;65.68;51.78;;;25.60;54.30;;;;;;4943035;28;99652;-62
2022/08/05 08:40:00;;;;;;;62.80;51.58;;;25.60;53.50;;;;;;4944600;28;94360;-60
2022/08/05 08:42:27;;;;;;;64.05;51.67;;;25.60;53.20;;;;;;4937236;28;90121;-55
2022/08/05 08:44:54;;;;;;;64.70;51.25;;;25.60;53.30;;;;;;4942272;28;91377;-59
2022/08/05 08:47:24;;;;;;;64.75;51.13;;;25.60;53.40;;;;;;4929304;28;90324;-58
2022/08/05 08:49:55;;;;;;;65.17;51.63;;;25.60;53.30;;;;;;4932932;28;97354;-58
2022/08/05 08:52:32;;;;;;;64.00;51.90;;;25.80;52.80;;;;;;4933319;28;94321;-57
2022/08/05 08:54:59;;;;;;;65.47;51.58;;;25.80;53.20;;;;;;4929659;28;91802;-60
2022/08/05 08:57:25;;;;;;;67.63;52.53;;;25.80;52.70;;;;;;4919272;28;94955;-62
2022/08/05 08:59:57;;;;;;;69.75;52.72;;;25.80;52.70;;;;;;4924432;28;93349;-59
2022/08/05 09:02:24;;;;;;;65.32;51.70;;;25.90;52.30;;;;;;4935223;28;91417;-61
2022/08/05 09:04:49;;;;;;;65.60;52.40;;;25.90;51.90;;;;;;4935145;28;89995;-61
2022/08/05 09:07:15;;;;;;;68.28;52.05;;;25.80;51.70;;;;;;4935162;28;93107;-60
2022/08/05 09:09:42;;;;;;;66.05;52.15;;;25.80;51.70;;;;;;4930222;28;91407;-61
2022/08/05 09:12:09;;;;;;;65.07;51.72;;;25.80;52.00;;;;;;4936299;28;91339;-61
2022/08/05 09:14:36;;;;;;;65.40;51.70;;;25.90;51.30;;;;;;4928753;28;92734;-61
2022/08/05 09:17:05;;;;;;;66.65;52.47;;;25.80;50.80;;;;;;4928238;28;90240;-61
2022/08/05 09:19:30;;;;;;;65.78;51.97;;;25.90;50.20;;;;;;4920869;28;92088;-59
2022/08/05 09:21:56;;;;;;;63.58;51.63;;;25.90;50.10;;;;;;4941881;28;90597;-60
2022/08/05 09:24:22;;;;;;;66.10;52.30;;;25.90;49.70;;;;;;4933029;28;89987;-61
2022/08/05 09:26:52;;;;;;;65.43;52.55;;;25.90;49.90;;;;;;4914168;28;92089;-58
2022/08/05 09:29:18;;;;;;;70.00;52.22;;;25.90;49.60;;;;;;4939439;28;93328;-58
2022/08/05 09:31:59;;;;;;;65.32;51.65;;;25.90;49.80;;;;;;4934831;28;89126;-59
2022/08/05 09:34:25;;;;;;;72.57;51.88;;;25.90;49.80;;;;;;4923376;28;90236;-57
2022/08/05 09:36:51;;;;;;;64.18;51.80;;;25.90;50.30;;;;;;4934802;28;90937;-61
2022/08/05 09:39:18;;;;;;;66.30;51.42;;;25.90;50.90;;;;;;4919612;28;93103;-61
2022/08/05 09:42:02;;;;;;;64.68;51.75;;;25.90;50.80;;;;;;4931206;28;95128;-57
2022/08/05 09:44:44;;;;;;;64.40;51.60;;;25.80;51.10;;;;;;4939715;28;90691;-61
2022/08/05 09:47:13;;;;;;;64.97;51.65;;;25.80;51.30;;;;;;4943299;28;90459;-60
2022/08/05 09:49:44;;;;;;;64.63;51.72;;;25.80;51.10;;;;;;4936740;28;90043;-59
2022/08/05 09:52:33;;;;;;;64.50;51.60;;;25.90;51.20;;;;;;4938058;28;91201;-60
2022/08/05 09:55:05;;;;;;;64.30;51.45;;;25.80;51.50;;;;;;4929949;28;91202;-59
2022/08/05 09:57:49;;;;;;;63.33;51.42;;;25.90;50.80;;;;;;4928505;28;91281;-61
2022/08/05 10:00:23;;;;;;;66.50;51.85;;;25.90;50.20;;;;;;4919810;28;92407;-61
2022/08/05 10:02:50;;;;;;;65.88;51.45;;;26.00;49.80;;;;;;4938077;28;91172;-60
2022/08/05 10:05:17;;;;;;;66.18;51.85;;;25.90;49.90;;;;;;4943289;28;94950;-60
2022/08/05 10:07:57;;;;;;;65.45;51.67;;;26.00;50.00;;;;;;4940383;28;90371;-59
2022/08/05 10:10:43;;;;;;;64.30;51.65;;;26.00;50.20;;;;;;4936204;28;90292;-60
2022/08/05 10:13:09;;;;;;;62.95;51.35;;;26.00;49.90;;;;;;4942745;28;91805;-59
2022/08/05 10:15:39;;;;;;;64.65;51.72;;;26.10;49.50;;;;;;4942891;28;89899;-56
2022/08/05 10:18:15;;;;;;;63.05;51.22;;;26.00;50.40;;;;;;4937632;28;90217;-58
2022/08/05 10:20:44;;;;;;;64.68;51.35;;;26.00;50.80;;;;;;4923276;28;89850;-61
2022/08/05 10:23:12;;;;;;;63.58;51.47;;;26.00;50.80;;;;;;4926833;28;91416;-58
2022/08/05 10:25:38;;;;;;;63.92;51.45;;;26.00;50.20;;;;;;4940622;28;89923;-61
2022/08/05 10:28:05;;;;;;;65.47;51.78;;;26.00;49.90;;;;;;4947513;28;90102;-61
2022/08/05 10:30:32;;;;;;;63.60;51.53;;;26.00;49.90;;;;;;4932049;28;90774;-59
2022/08/05 10:32:58;;;;;;;64.22;51.55;;;26.00;49.90;;;;;;4927614;28;90376;-60
2022/08/05 10:35:25;;;;;;;64.32;51.25;;;26.00;50.10;;;;;;4927035;28;97101;-60
2022/08/05 10:37:52;;;;;;;62.67;51.20;;;26.10;49.80;;;;;;4930903;28;90565;-60
2022/08/05 10:40:26;;;;;;;65.38;51.45;;;26.20;49.30;;;;;;4927221;28;92372;-60
2022/08/05 10:42:54;;;;;;;63.75;51.42;;;26.10;48.40;;;;;;4922894;28;94068;-61
2022/08/05 10:45:29;;;;;;;63.40;51.28;;;26.10;48.80;;;;;;4929927;28;90204;-61
2022/08/05 10:47:55;;;;;;;63.40;51.35;;;26.00;48.30;;;;;;4939351;28;88778;-61
2022/08/05 10:50:21;;;;;;;63.13;51.05;;;26.00;49.00;;;;;;4937961;28;90516;-60
2022/08/05 10:52:58;;;;;;;62.63;51.17;;;26.00;48.70;;;;;;4945284;28;91348;-60
2022/08/05 10:55:25;;;;;;;66.85;51.10;;;25.80;48.60;;;;;;4927320;28;91967;-60
2022/08/05 10:58:10;;;;;;;66.15;51.25;;;25.70;49.00;;;;;;4936553;28;89606;-59
2022/08/05 11:00:36;;;;;;;63.30;50.97;;;25.60;49.30;;;;;;4929557;28;90076;-59
2022/08/05 11:03:04;;;;;;;62.85;50.90;;;25.60;49.40;;;;;;4932612;28;95911;-60
2022/08/05 11:05:32;;;;;;;64.90;51.13;;;25.60;49.50;;;;;;4929725;28;91151;-59
2022/08/05 11:08:03;;;;;;;62.53;50.75;;;25.60;49.30;;;;;;4926430;28;90241;-58
2022/08/05 11:10:31;;;;;;;62.60;51.13;;;25.60;49.20;;;;;;4929665;28;90964;-61
2022/08/05 11:12:58;;;;;;;62.80;51.03;;;25.70;49.20;;;;;;4938049;28;89771;-60
2022/08/05 11:15:28;;;;;;;65.53;51.13;;;25.80;49.00;;;;;;4930040;28;93314;-60
2022/08/05 11:18:22;;;;;;;67.63;51.30;;;25.70;48.70;;;;;;4933320;28;91728;-59
2022/08/05 11:20:50;;;;;;;64.07;51.05;;;25.70;48.70;;;;;;4933150;28;91889;-60
2022/08/05 11:24:06;;;;;;;62.97;50.83;;;25.70;48.30;;;;;;4934722;28;90710;-60
2022/08/05 11:26:31;;;;;;;64.88;51.00;;;25.60;48.50;;;;;;4909489;28;90932;-60
2022/08/05 11:28:57;;;;;;;65.20;51.25;;;25.70;48.40;;;;;;4911306;28;94436;-60
2022/08/05 11:31:32;;;;;;;62.20;50.92;;;25.70;48.40;;;;;;4925326;28;91840;-60
2022/08/05 11:34:01;;;;;;;62.70;51.17;;;25.70;48.30;;;;;;4933510;28;92320;-60
2022/08/05 11:36:43;;;;;;;61.90;51.08;;;25.80;48.30;;;;;;4934852;28;91010;-58
2022/08/05 11:39:10;;;;;;;63.88;50.83;;;25.80;48.10;;;;;;4936236;28;94950;-60
2022/08/05 11:41:37;;;;;;;62.75;51.05;;;25.80;47.80;;;;;;4935096;28;89604;-61
2022/08/05 11:44:21;;;;;;;62.28;51.00;;;25.80;47.80;;;;;;4949442;28;90528;-60
2022/08/05 11:46:51;;;;;;;61.90;50.75;;;25.90;47.70;;;;;;4945497;28;92893;-60
2022/08/05 11:49:22;;;;;;;62.53;50.75;;;25.90;47.20;;;;;;4946948;28;90444;-61
2022/08/05 11:51:52;;;;;;;61.92;51.05;;;25.80;47.10;;;;;;4933099;28;92841;-60
2022/08/05 11:54:31;;;;;;;63.30;51.00;;;25.80;47.20;;;;;;4934536;28;90563;-58
2022/08/05 11:56:57;;;;;;;63.53;50.97;;;25.90;47.50;;;;;;4936283;28;90477;-58
2022/08/05 11:59:25;;;;;;;62.85;51.00;;;26.00;47.50;;;;;;4927948;28;93227;-59
2022/08/05 12:02:04;;;;;;;62.22;51.13;;;26.10;47.30;;;;;;4928465;28;91649;-60
2022/08/05 12:04:44;;;;;;;63.08;50.90;;;26.00;47.00;;;;;;4932109;28;89443;-58
2022/08/05 12:07:12;;;;;;;62.90;50.83;;;26.00;47.50;;;;;;4924995;28;90591;-60
2022/08/05 12:09:41;;;;;;;62.10;50.95;;;26.00;48.60;;;;;;4919776;28;90555;-60
2022/08/05 12:12:07;;;;;;;63.03;51.00;;;26.00;47.70;;;;;;4945742;28;94055;-59
2022/08/05 12:14:41;;;;;;;64.30;51.22;;;26.20;46.60;;;;;;4928493;28;95594;-57
2022/08/05 12:17:12;;;;;;;63.05;51.10;;;26.20;46.30;;;;;;4921111;28;95555;-62
2022/08/05 12:19:41;;;;;;;;;;;26.20;45.80;;;;;;4934483;28;93324;-62
2022/08/05 12:22:07;;;;;;;63.33;50.53;;;26.20;45.80;;;;;;4943229;28;90296;-60
2022/08/05 12:24:33;;;;;;;64.13;50.92;;;26.10;45.80;;;;;;4919832;28;93012;-61
2022/08/05 12:27:00;;;;;;;62.70;51.00;;;26.10;45.80;;;;;;4925027;28;94788;-62
2022/08/05 12:29:27;;;;;;;64.03;51.25;;;26.00;45.70;;;;;;4930831;28;90713;-61
2022/08/05 12:31:56;;;;;;;63.45;51.20;;;26.10;46.30;;;;;;4943452;28;91963;-59
2022/08/05 12:34:30;;;;;;;62.97;51.03;;;26.10;46.50;;;;;;4932275;28;91921;-61
2022/08/05 12:36:59;;;;;;;62.55;51.05;;;26.20;47.20;;;;;;4919819;28;91314;-60